sensor_id;sensor_type;location;lat;lon;timestamp;pressure;altitude;pressure_sealevel;temperature;humidity
9855;BME280;4966;48.112;9.282;2023-03-26T00:01:13;94282.59;;;6.37;83.34
9855;BME280;4966;48.112;9.282;2023-03-26T00:03:40;94279.91;;;6.37;83.55
9855;BME280;4966;48.112;9.282;2023-03-26T00:06:11;94266.09;;;6.30;84.09
9855;BME280;4966;48.112;9.282;2023-03-26T00:08:38;94273.72;;;6.28;84.64
9855;BME280;4966;48.112;9.282;2023-03-26T00:11:06;94267.53;;;6.19;84.84
9855;BME280;4966;48.112;9.282;2023-03-26T00:13:32;94280.56;;;6.17;84.51
9855;BME280;4966;48.112;9.282;2023-03-26T00:15:58;94293.09;;;6.22;84.00
9855;BME280;4966;48.112;9.282;2023-03-26T00:18:25;94293.59;;;6.06;84.41
9855;BME280;4966;48.112;9.282;2023-03-26T00:20:58;94285.03;;;6.04;84.32
9855;BME280;4966;48.112;9.282;2023-03-26T00:23:25;94285.63;;;6.10;83.83
9855;BME280;4966;48.112;9.282;2023-03-26T00:25:51;94286.94;;;5.95;85.29
9855;BME280;4966;48.112;9.282;2023-03-26T00:28:18;94272.28;;;5.79;86.13
9855;BME280;4966;48.112;9.282;2023-03-26T00:30:55;94268.47;;;5.71;86.41
9855;BME280;4966;48.112;9.282;2023-03-26T00:33:21;94279.13;;;5.85;85.72
9855;BME280;4966;48.112;9.282;2023-03-26T00:35:51;94283.25;;;5.73;86.25
9855;BME280;4966;48.112;9.282;2023-03-26T00:38:18;94276.25;;;5.90;85.49
9855;BME280;4966;48.112;9.282;2023-03-26T00:40:44;94280.38;;;5.70;84.13
9855;BME280;4966;48.112;9.282;2023-03-26T00:43:13;94273.69;;;5.50;85.46
9855;BME280;4966;48.112;9.282;2023-03-26T00:45:49;94267.69;;;5.70;84.56
9855;BME280;4966;48.112;9.282;2023-03-26T00:48:16;94269.72;;;5.47;87.30
9855;BME280;4966;48.112;9.282;2023-03-26T00:50:43;94263.69;;;5.59;86.86
9855;BME280;4966;48.112;9.282;2023-03-26T00:53:08;94262.91;;;5.76;86.02
9855;BME280;4966;48.112;9.282;2023-03-26T00:55:38;94269.41;;;5.66;85.78
9855;BME280;4966;48.112;9.282;2023-03-26T00:58:05;94270.84;;;5.90;85.59
9855;BME280;4966;48.112;9.282;2023-03-26T01:00:36;94260.53;;;6.01;84.57
9855;BME280;4966;48.112;9.282;2023-03-26T01:03:05;94266.59;;;6.06;84.22
9855;BME280;4966;48.112;9.282;2023-03-26T01:08:00;94254.19;;;6.05;84.12
9855;BME280;4966;48.112;9.282;2023-03-26T01:10:28;94256.25;;;5.91;84.72
9855;BME280;4966;48.112;9.282;2023-03-26T01:12:54;94253.88;;;5.81;85.40
9855;BME280;4966;48.112;9.282;2023-03-26T01:15:20;94253.25;;;6.01;82.65
9855;BME280;4966;48.112;9.282;2023-03-26T01:17:46;94246.72;;;5.76;83.18
9855;BME280;4966;48.112;9.282;2023-03-26T01:20:19;94241.16;;;5.64;84.84
9855;BME280;4966;48.112;9.282;2023-03-26T01:22:54;94235.13;;;5.67;85.10
9855;BME280;4966;48.112;9.282;2023-03-26T01:25:24;94228.00;;;5.71;84.66
9855;BME280;4966;48.112;9.282;2023-03-26T01:27:55;94218.78;;;5.89;84.41
9855;BME280;4966;48.112;9.282;2023-03-26T01:31:10;94225.59;;;5.78;84.43
9855;BME280;4966;48.112;9.282;2023-03-26T01:36:03;94227.69;;;5.46;85.61
9855;BME280;4966;48.112;9.282;2023-03-26T01:41:31;94223.41;;;5.63;84.96
9855;BME280;4966;48.112;9.282;2023-03-26T01:44:12;94217.19;;;5.80;83.76
9855;BME280;4966;48.112;9.282;2023-03-26T01:46:41;94215.13;;;5.59;84.50
9855;BME280;4966;48.112;9.282;2023-03-26T01:49:07;94205.91;;;5.60;85.04
9855;BME280;4966;48.112;9.282;2023-03-26T01:51:39;94204.03;;;5.61;85.24
9855;BME280;4966;48.112;9.282;2023-03-26T01:54:08;94202.44;;;5.60;85.55
9855;BME280;4966;48.112;9.282;2023-03-26T01:59:03;94187.34;;;5.85;84.50
9855;BME280;4966;48.112;9.282;2023-03-26T02:07:06;94174.50;;;5.73;84.52
9855;BME280;4966;48.112;9.282;2023-03-26T02:09:41;94177.34;;;5.76;84.38
9855;BME280;4966;48.112;9.282;2023-03-26T02:12:10;94171.47;;;5.83;83.90
9855;BME280;4966;48.112;9.282;2023-03-26T02:14:37;94170.81;;;5.86;83.81
9855;BME280;4966;48.112;9.282;2023-03-26T02:17:02;94169.72;;;5.79;83.65
9855;BME280;4966;48.112;9.282;2023-03-26T02:19:28;94160.53;;;5.80;84.00
9855;BME280;4966;48.112;9.282;2023-03-26T02:21:53;94158.13;;;5.78;84.28
9855;BME280;4966;48.112;9.282;2023-03-26T02:24:24;94143.50;;;5.79;84.24
9855;BME280;4966;48.112;9.282;2023-03-26T02:26:49;94139.25;;;5.87;84.16
9855;BME280;4966;48.112;9.282;2023-03-26T02:29:15;94123.81;;;6.05;82.01
9855;BME280;4966;48.112;9.282;2023-03-26T02:31:45;94120.88;;;5.63;83.48
9855;BME280;4966;48.112;9.282;2023-03-26T02:34:11;94112.78;;;5.54;83.93
9855;BME280;4966;48.112;9.282;2023-03-26T02:36:36;94117.25;;;5.41;84.75
9855;BME280;4966;48.112;9.282;2023-03-26T02:39:02;94116.56;;;5.53;84.08
9855;BME280;4966;48.112;9.282;2023-03-26T02:41:28;94117.22;;;5.50;84.84
9855;BME280;4966;48.112;9.282;2023-03-26T02:43:53;94097.19;;;5.77;83.89
9855;BME280;4966;48.112;9.282;2023-03-26T02:46:18;94110.69;;;5.68;83.82
9855;BME280;4966;48.112;9.282;2023-03-26T02:48:44;94104.16;;;5.69;84.27
9855;BME280;4966;48.112;9.282;2023-03-26T02:51:09;94089.91;;;5.60;84.62
9855;BME280;4966;48.112;9.282;2023-03-26T02:53:35;94088.44;;;5.71;84.60
9855;BME280;4966;48.112;9.282;2023-03-26T02:56:01;94092.75;;;5.72;84.63
9855;BME280;4966;48.112;9.282;2023-03-26T02:58:27;94079.25;;;5.72;85.00
9855;BME280;4966;48.112;9.282;2023-03-26T03:00:54;94069.97;;;5.35;86.44
9855;BME280;4966;48.112;9.282;2023-03-26T03:03:23;94050.63;;;5.16;88.11
9855;BME280;4966;48.112;9.282;2023-03-26T03:05:50;94046.03;;;5.16;88.58
9855;BME280;4966;48.112;9.282;2023-03-26T03:08:17;94033.94;;;5.40;87.00
9855;BME280;4966;48.112;9.282;2023-03-26T03:10:43;94032.50;;;5.51;87.06
9855;BME280;4966;48.112;9.282;2023-03-26T03:13:08;94020.31;;;5.27;88.74
9855;BME280;4966;48.112;9.282;2023-03-26T03:15:33;94016.50;;;5.28;89.04
9855;BME280;4966;48.112;9.282;2023-03-26T03:17:59;94022.00;;;5.49;88.67
9855;BME280;4966;48.112;9.282;2023-03-26T03:20:25;94042.47;;;5.59;88.46
9855;BME280;4966;48.112;9.282;2023-03-26T03:22:50;94035.72;;;5.83;87.27
9855;BME280;4966;48.112;9.282;2023-03-26T03:25:15;94033.94;;;5.95;86.23
9855;BME280;4966;48.112;9.282;2023-03-26T03:27:42;94035.34;;;5.93;86.16
9855;BME280;4966;48.112;9.282;2023-03-26T03:30:11;94034.88;;;6.00;86.18
9855;BME280;4966;48.112;9.282;2023-03-26T03:32:37;94037.97;;;6.19;83.97
9855;BME280;4966;48.112;9.282;2023-03-26T03:35:02;94036.81;;;6.29;82.22
9855;BME280;4966;48.112;9.282;2023-03-26T03:37:28;94023.34;;;6.20;82.29
9855;BME280;4966;48.112;9.282;2023-03-26T03:39:53;94009.03;;;5.90;84.02
9855;BME280;4966;48.112;9.282;2023-03-26T03:42:19;94013.94;;;5.96;83.86
9855;BME280;4966;48.112;9.282;2023-03-26T03:44:44;94004.41;;;5.99;83.62
9855;BME280;4966;48.112;9.282;2023-03-26T03:47:10;94003.38;;;6.12;83.97
9855;BME280;4966;48.112;9.282;2023-03-26T03:49:38;94008.84;;;6.04;83.82
9855;BME280;4966;48.112;9.282;2023-03-26T03:52:04;93999.59;;;6.05;84.06
9855;BME280;4966;48.112;9.282;2023-03-26T03:54:30;94001.72;;;6.20;83.65
9855;BME280;4966;48.112;9.282;2023-03-26T03:56:55;93984.44;;;6.21;83.78
9855;BME280;4966;48.112;9.282;2023-03-26T03:59:20;93984.38;;;6.30;82.81
9855;BME280;4966;48.112;9.282;2023-03-26T04:01:46;93986.75;;;6.02;83.87
9855;BME280;4966;48.112;9.282;2023-03-26T04:04:12;93977.72;;;5.97;84.17
9855;BME280;4966;48.112;9.282;2023-03-26T04:06:38;93973.56;;;6.00;84.14
9855;BME280;4966;48.112;9.282;2023-03-26T04:09:04;93980.69;;;6.05;84.42
9855;BME280;4966;48.112;9.282;2023-03-26T04:11:29;93977.25;;;6.25;83.58
9855;BME280;4966;48.112;9.282;2023-03-26T04:13:54;93993.97;;;6.18;83.94
9855;BME280;4966;48.112;9.282;2023-03-26T04:16:20;93977.53;;;6.32;83.76
9855;BME280;4966;48.112;9.282;2023-03-26T04:18:46;93977.81;;;6.39;82.85
9855;BME280;4966;48.112;9.282;2023-03-26T04:21:11;93974.91;;;6.45;83.27
9855;BME280;4966;48.112;9.282;2023-03-26T04:23:39;93965.00;;;6.49;82.78
9855;BME280;4966;48.112;9.282;2023-03-26T04:26:08;93968.84;;;6.69;81.02
9855;BME280;4966;48.112;9.282;2023-03-26T04:28:59;93965.06;;;6.40;82.68
9855;BME280;4966;48.112;9.282;2023-03-26T04:31:27;93975.69;;;6.45;82.81
9855;BME280;4966;48.112;9.282;2023-03-26T04:33:55;93969.47;;;6.24;84.23
9855;BME280;4966;48.112;9.282;2023-03-26T04:36:28;93962.94;;;6.04;86.23
9855;BME280;4966;48.112;9.282;2023-03-26T04:38:54;93964.38;;;6.22;85.22
9855;BME280;4966;48.112;9.282;2023-03-26T04:41:22;93958.88;;;6.39;84.40
9855;BME280;4966;48.112;9.282;2023-03-26T04:43:51;93953.50;;;6.39;84.13
9855;BME280;4966;48.112;9.282;2023-03-26T04:46:16;93963.03;;;6.37;84.47
9855;BME280;4966;48.112;9.282;2023-03-26T04:48:47;93958.78;;;6.27;84.68
9855;BME280;4966;48.112;9.282;2023-03-26T04:51:13;93956.59;;;5.91;86.67
9855;BME280;4966;48.112;9.282;2023-03-26T04:53:57;93946.94;;;5.99;86.34
9855;BME280;4966;48.112;9.282;2023-03-26T04:58:58;93953.94;;;6.21;85.79
9855;BME280;4966;48.112;9.282;2023-03-26T05:01:24;93948.25;;;6.34;85.50
9855;BME280;4966;48.112;9.282;2023-03-26T05:03:53;93947.16;;;6.35;86.02
9855;BME280;4966;48.112;9.282;2023-03-26T05:06:19;93953.06;;;6.29;86.36
9855;BME280;4966;48.112;9.282;2023-03-26T05:08:46;93947.19;;;6.27;86.75
9855;BME280;4966;48.112;9.282;2023-03-26T05:11:11;93934.56;;;6.39;86.89
9855;BME280;4966;48.112;9.282;2023-03-26T05:13:37;93936.66;;;6.55;85.12
9855;BME280;4966;48.112;9.282;2023-03-26T05:16:03;93923.47;;;6.53;84.89
9855;BME280;4966;48.112;9.282;2023-03-26T05:18:28;93925.19;;;6.58;84.67
9855;BME280;4966;48.112;9.282;2023-03-26T05:20:53;93920.25;;;6.60;85.49
9855;BME280;4966;48.112;9.282;2023-03-26T05:23:21;93896.41;;;6.62;85.26
9855;BME280;4966;48.112;9.282;2023-03-26T05:25:46;93894.44;;;6.50;86.02
9855;BME280;4966;48.112;9.282;2023-03-26T05:28:12;93893.91;;;6.36;86.63
9855;BME280;4966;48.112;9.282;2023-03-26T05:30:37;93879.94;;;6.34;87.54
9855;BME280;4966;48.112;9.282;2023-03-26T05:33:02;93876.31;;;6.51;86.68
9855;BME280;4966;48.112;9.282;2023-03-26T05:35:28;93872.78;;;6.38;87.29
9855;BME280;4966;48.112;9.282;2023-03-26T05:37:53;93882.59;;;6.43;87.52
9855;BME280;4966;48.112;9.282;2023-03-26T05:40:19;93860.66;;;6.44;88.15
9855;BME280;4966;48.112;9.282;2023-03-26T05:42:45;93864.50;;;6.55;88.18
9855;BME280;4966;48.112;9.282;2023-03-26T05:45:12;93853.22;;;6.53;88.28
9855;BME280;4966;48.112;9.282;2023-03-26T05:47:38;93856.06;;;6.57;88.13
9855;BME280;4966;48.112;9.282;2023-03-26T05:50:04;93848.25;;;6.43;88.99
9855;BME280;4966;48.112;9.282;2023-03-26T05:52:30;93841.56;;;6.62;88.92
9855;BME280;4966;48.112;9.282;2023-03-26T05:54:56;93839.91;;;6.69;88.86
9855;BME280;4966;48.112;9.282;2023-03-26T05:57:21;93829.00;;;6.78;87.49
9855;BME280;4966;48.112;9.282;2023-03-26T05:59:48;93831.00;;;6.69;87.11
9855;BME280;4966;48.112;9.282;2023-03-26T06:02:14;93835.44;;;6.52;88.43
9855;BME280;4966;48.112;9.282;2023-03-26T06:04:40;93838.31;;;6.68;88.48
9855;BME280;4966;48.112;9.282;2023-03-26T06:07:07;93819.84;;;6.70;88.55
9855;BME280;4966;48.112;9.282;2023-03-26T06:09:36;93810.72;;;6.75;88.59
9855;BME280;4966;48.112;9.282;2023-03-26T06:12:03;93807.25;;;6.74;88.95
9855;BME280;4966;48.112;9.282;2023-03-26T06:14:29;93807.59;;;6.73;89.39
9855;BME280;4966;48.112;9.282;2023-03-26T06:16:55;93799.38;;;6.81;89.47
9855;BME280;4966;48.112;9.282;2023-03-26T06:19:20;93792.28;;;6.89;89.03
9855;BME280;4966;48.112;9.282;2023-03-26T06:21:46;93790.94;;;6.95;89.12
9855;BME280;4966;48.112;9.282;2023-03-26T06:24:11;93783.75;;;6.99;88.91
9855;BME280;4966;48.112;9.282;2023-03-26T06:26:36;93789.63;;;7.14;88.74
9855;BME280;4966;48.112;9.282;2023-03-26T06:29:02;93785.69;;;7.11;88.51
9855;BME280;4966;48.112;9.282;2023-03-26T06:31:27;93774.63;;;7.04;89.27
9855;BME280;4966;48.112;9.282;2023-03-26T06:33:52;93770.56;;;7.10;89.61
9855;BME280;4966;48.112;9.282;2023-03-26T06:36:18;93774.72;;;7.08;89.33
9855;BME280;4966;48.112;9.282;2023-03-26T06:38:43;93764.13;;;7.15;89.53
9855;BME280;4966;48.112;9.282;2023-03-26T06:41:08;93758.06;;;7.06;89.69
9855;BME280;4966;48.112;9.282;2023-03-26T06:43:34;93750.16;;;7.13;89.46
9855;BME280;4966;48.112;9.282;2023-03-26T06:46:01;93748.38;;;7.17;89.54
9855;BME280;4966;48.112;9.282;2023-03-26T06:48:26;93729.84;;;7.43;88.94
9855;BME280;4966;48.112;9.282;2023-03-26T06:50:51;93740.38;;;7.33;89.41
9855;BME280;4966;48.112;9.282;2023-03-26T06:53:17;93719.50;;;7.33;89.37
9855;BME280;4966;48.112;9.282;2023-03-26T06:55:42;93712.94;;;7.34;89.86
9855;BME280;4966;48.112;9.282;2023-03-26T06:58:10;93716.06;;;7.61;88.52
9855;BME280;4966;48.112;9.282;2023-03-26T07:00:35;93708.13;;;7.40;89.37
9855;BME280;4966;48.112;9.282;2023-03-26T07:03:02;93715.66;;;7.34;89.98
9855;BME280;4966;48.112;9.282;2023-03-26T07:05:28;93706.56;;;7.14;90.15
9855;BME280;4966;48.112;9.282;2023-03-26T07:07:53;93705.31;;;7.24;89.86
9855;BME280;4966;48.112;9.282;2023-03-26T07:10:19;93697.16;;;7.36;88.99
9855;BME280;4966;48.112;9.282;2023-03-26T07:12:44;93714.78;;;6.93;92.47
9855;BME280;4966;48.112;9.282;2023-03-26T07:15:10;93710.25;;;6.48;93.14
9855;BME280;4966;48.112;9.282;2023-03-26T07:17:36;93721.97;;;6.52;94.75
9855;BME280;4966;48.112;9.282;2023-03-26T07:20:02;93709.94;;;6.99;91.88
9855;BME280;4966;48.112;9.282;2023-03-26T07:22:28;93692.56;;;7.24;90.46
9855;BME280;4966;48.112;9.282;2023-03-26T07:24:54;93698.66;;;7.34;90.73
9855;BME280;4966;48.112;9.282;2023-03-26T07:29:51;93687.72;;;7.71;89.90
9855;BME280;4966;48.112;9.282;2023-03-26T07:32:39;93685.75;;;7.83;88.38
9855;BME280;4966;48.112;9.282;2023-03-26T07:38:56;93681.06;;;7.68;89.26
9855;BME280;4966;48.112;9.282;2023-03-26T07:41:49;93677.63;;;7.55;89.72
9855;BME280;4966;48.112;9.282;2023-03-26T07:44:20;93678.19;;;7.49;90.32
9855;BME280;4966;48.112;9.282;2023-03-26T07:46:48;93673.25;;;7.51;90.53
9855;BME280;4966;48.112;9.282;2023-03-26T07:49:17;93677.22;;;7.41;91.03
9855;BME280;4966;48.112;9.282;2023-03-26T07:51:45;93667.00;;;7.62;90.31
9855;BME280;4966;48.112;9.282;2023-03-26T07:54:11;93666.81;;;7.55;90.31
9855;BME280;4966;48.112;9.282;2023-03-26T07:57:07;93668.69;;;7.67;90.57
9855;BME280;4966;48.112;9.282;2023-03-26T08:00:10;93662.56;;;7.70;91.09
9855;BME280;4966;48.112;9.282;2023-03-26T08:05:23;93656.75;;;8.12;89.16
9855;BME280;4966;48.112;9.282;2023-03-26T08:11:39;93629.47;;;8.21;87.76
9855;BME280;4966;48.112;9.282;2023-03-26T08:22:09;93625.69;;;8.54;87.98
9855;BME280;4966;48.112;9.282;2023-03-26T08:24:55;93625.38;;;8.27;90.21
9855;BME280;4966;48.112;9.282;2023-03-26T08:27:40;93621.78;;;8.23;91.04
9855;BME280;4966;48.112;9.282;2023-03-26T08:30:20;93614.94;;;7.81;94.60
9855;BME280;4966;48.112;9.282;2023-03-26T08:32:53;93600.03;;;8.19;93.87
9855;BME280;4966;48.112;9.282;2023-03-26T08:35:19;93598.81;;;8.32;94.30
9855;BME280;4966;48.112;9.282;2023-03-26T08:37:44;93600.84;;;8.51;92.89
9855;BME280;4966;48.112;9.282;2023-03-26T08:40:11;93594.47;;;8.44;93.92
9855;BME280;4966;48.112;9.282;2023-03-26T08:42:40;93589.28;;;8.70;92.45
9855;BME280;4966;48.112;9.282;2023-03-26T08:51:06;93569.19;;;8.08;95.68
9855;BME280;4966;48.112;9.282;2023-03-26T09:02:29;93589.66;;;7.77;97.12
9855;BME280;4966;48.112;9.282;2023-03-26T09:29:42;93609.88;;;8.12;98.66
9855;BME280;4966;48.112;9.282;2023-03-26T09:38:37;93640.50;;;8.12;98.50
9855;BME280;4966;48.112;9.282;2023-03-26T09:41:38;93646.03;;;8.31;97.83
9855;BME280;4966;48.112;9.282;2023-03-26T09:52:01;93639.19;;;8.38;98.56
9855;BME280;4966;48.112;9.282;2023-03-26T10:02:39;93619.97;;;8.75;96.38
9855;BME280;4966;48.112;9.282;2023-03-26T10:08:00;93600.63;;;8.76;96.63
9855;BME280;4966;48.112;9.282;2023-03-26T10:20:52;93595.75;;;10.18;87.89
9855;BME280;4966;48.112;9.282;2023-03-26T10:40:22;93581.66;;;11.38;83.28
9855;BME280;4966;48.112;9.282;2023-03-26T10:42:58;93581.97;;;11.33;83.28
9855;BME280;4966;48.112;9.282;2023-03-26T10:53:31;93580.97;;;10.61;83.27
9855;BME280;4966;48.112;9.282;2023-03-26T10:56:23;93577.81;;;10.36;83.24
9855;BME280;4966;48.112;9.282;2023-03-26T10:58:51;93563.94;;;10.41;84.33
9855;BME280;4966;48.112;9.282;2023-03-26T11:10:23;93552.97;;;11.48;78.27
9855;BME280;4966;48.112;9.282;2023-03-26T11:15:22;93569.75;;;12.21;75.62
9855;BME280;4966;48.112;9.282;2023-03-26T11:18:01;93568.88;;;12.13;74.16
9855;BME280;4966;48.112;9.282;2023-03-26T11:20:56;93561.53;;;12.62;72.13
9855;BME280;4966;48.112;9.282;2023-03-26T11:23:35;93562.91;;;12.42;72.34
9855;BME280;4966;48.112;9.282;2023-03-26T11:34:16;93567.50;;;10.72;78.27
9855;BME280;4966;48.112;9.282;2023-03-26T11:36:45;93566.50;;;10.57;78.19
9855;BME280;4966;48.112;9.282;2023-03-26T11:39:17;93572.88;;;10.42;79.40
9855;BME280;4966;48.112;9.282;2023-03-26T11:41:45;93595.34;;;10.62;80.56
9855;BME280;4966;48.112;9.282;2023-03-26T11:44:24;93593.78;;;9.95;76.33
9855;BME280;4966;48.112;9.282;2023-03-26T11:46:55;93584.94;;;9.98;77.05
9855;BME280;4966;48.112;9.282;2023-03-26T11:49:24;93602.06;;;9.60;74.94
9855;BME280;4966;48.112;9.282;2023-03-26T11:51:50;93607.88;;;9.23;74.61
9855;BME280;4966;48.112;9.282;2023-03-26T11:54:16;93617.91;;;9.03;78.92
9855;BME280;4966;48.112;9.282;2023-03-26T11:56:51;93598.13;;;11.19;70.23
9855;BME280;4966;48.112;9.282;2023-03-26T11:59:19;93607.59;;;13.26;62.46
9855;BME280;4966;48.112;9.282;2023-03-26T12:01:49;93608.13;;;15.30;58.72
9855;BME280;4966;48.112;9.282;2023-03-26T12:04:17;93591.38;;;13.51;54.93
9855;BME280;4966;48.112;9.282;2023-03-26T12:09:56;93607.91;;;10.97;63.53
9855;BME280;4966;48.112;9.282;2023-03-26T12:12:35;93603.13;;;9.75;71.65
9855;BME280;4966;48.112;9.282;2023-03-26T12:15:01;93595.97;;;9.47;74.31
9855;BME280;4966;48.112;9.282;2023-03-26T12:17:30;93578.88;;;10.09;75.04
9855;BME280;4966;48.112;9.282;2023-03-26T12:19:57;93578.28;;;10.65;75.12
9855;BME280;4966;48.112;9.282;2023-03-26T12:22:35;93567.25;;;13.71;63.33
9855;BME280;4966;48.112;9.282;2023-03-26T12:25:16;93560.03;;;14.58;58.23
9855;BME280;4966;48.112;9.282;2023-03-26T12:30:35;93541.25;;;16.12;47.72
9855;BME280;4966;48.112;9.282;2023-03-26T12:33:05;93529.50;;;16.08;50.88
9855;BME280;4966;48.112;9.282;2023-03-26T12:35:32;93514.06;;;15.73;50.72
9855;BME280;4966;48.112;9.282;2023-03-26T12:38:29;93509.78;;;15.54;48.35
9855;BME280;4966;48.112;9.282;2023-03-26T12:41:11;93511.44;;;15.37;44.91
9855;BME280;4966;48.112;9.282;2023-03-26T12:43:41;93504.94;;;13.18;48.95
9855;BME280;4966;48.112;9.282;2023-03-26T12:46:29;93512.28;;;14.19;48.14
9855;BME280;4966;48.112;9.282;2023-03-26T12:48:58;93517.00;;;14.40;48.22
9855;BME280;4966;48.112;9.282;2023-03-26T12:51:57;93505.63;;;13.92;49.33
9855;BME280;4966;48.112;9.282;2023-03-26T12:57:23;93481.78;;;14.03;45.60
9855;BME280;4966;48.112;9.282;2023-03-26T13:05:49;93495.94;;;15.90;40.21
9855;BME280;4966;48.112;9.282;2023-03-26T13:22:24;93496.63;;;20.95;29.59
9855;BME280;4966;48.112;9.282;2023-03-26T13:35:34;93466.34;;;13.19;41.48
9855;BME280;4966;48.112;9.282;2023-03-26T13:40:41;93439.16;;;13.48;41.07
9855;BME280;4966;48.112;9.282;2023-03-26T13:46:10;93435.69;;;14.62;37.59
9855;BME280;4966;48.112;9.282;2023-03-26T13:51:29;93426.19;;;16.43;33.50
9855;BME280;4966;48.112;9.282;2023-03-26T13:54:04;93410.31;;;16.62;32.22
9855;BME280;4966;48.112;9.282;2023-03-26T13:56:39;93408.53;;;17.51;31.91
9855;BME280;4966;48.112;9.282;2023-03-26T13:59:13;93402.66;;;17.18;30.87
9855;BME280;4966;48.112;9.282;2023-03-26T14:01:48;93403.19;;;14.89;33.83
9855;BME280;4966;48.112;9.282;2023-03-26T14:04:20;93418.53;;;13.79;36.73
9855;BME280;4966;48.112;9.282;2023-03-26T14:07:05;93418.13;;;14.56;36.32
9855;BME280;4966;48.112;9.282;2023-03-26T14:12:25;93392.91;;;15.19;34.56
9855;BME280;4966;48.112;9.282;2023-03-26T14:15:04;93392.50;;;16.77;32.42
9855;BME280;4966;48.112;9.282;2023-03-26T14:17:50;93401.91;;;17.17;31.54
9855;BME280;4966;48.112;9.282;2023-03-26T14:26:07;93375.88;;;13.25;39.08
9855;BME280;4966;48.112;9.282;2023-03-26T14:34:56;93360.22;;;12.23;42.70
9855;BME280;4966;48.112;9.282;2023-03-26T14:40:25;93384.50;;;16.93;34.25
9855;BME280;4966;48.112;9.282;2023-03-26T14:43:22;93391.72;;;16.76;34.35
9855;BME280;4966;48.112;9.282;2023-03-26T14:52:04;93400.84;;;13.27;41.34
9855;BME280;4966;48.112;9.282;2023-03-26T14:54:32;93402.88;;;13.58;40.74
9855;BME280;4966;48.112;9.282;2023-03-26T15:00:23;93398.59;;;12.55;43.18
9855;BME280;4966;48.112;9.282;2023-03-26T15:44:21;93488.78;;;8.99;63.21
9855;BME280;4966;48.112;9.282;2023-03-26T15:52:33;93478.22;;;8.93;63.02
9855;BME280;4966;48.112;9.282;2023-03-26T16:00:28;93488.94;;;9.06;62.42
9855;BME280;4966;48.112;9.282;2023-03-26T16:03:18;93502.69;;;9.36;62.09
9855;BME280;4966;48.112;9.282;2023-03-26T16:17:05;93505.09;;;9.61;57.19
9855;BME280;4966;48.112;9.282;2023-03-26T16:22:04;93494.34;;;9.68;55.61
9855;BME280;4966;48.112;9.282;2023-03-26T16:24:44;93498.41;;;9.77;54.71
9855;BME280;4966;48.112;9.282;2023-03-26T16:32:44;93518.56;;;10.22;52.81
9855;BME280;4966;48.112;9.282;2023-03-26T16:37:40;93506.91;;;10.45;50.62
9855;BME280;4966;48.112;9.282;2023-03-26T16:59:49;93521.63;;;8.93;56.59
9855;BME280;4966;48.112;9.282;2023-03-26T17:02:33;93527.09;;;8.62;57.97
9855;BME280;4966;48.112;9.282;2023-03-26T17:05:24;93522.63;;;9.24;56.84
9855;BME280;4966;48.112;9.282;2023-03-26T17:08:00;93522.72;;;8.73;57.43
9855;BME280;4966;48.112;9.282;2023-03-26T17:13:55;93520.56;;;8.98;57.55
9855;BME280;4966;48.112;9.282;2023-03-26T17:21:14;93526.81;;;9.22;57.33
9855;BME280;4966;48.112;9.282;2023-03-26T17:27:07;93532.47;;;8.42;59.76
9855;BME280;4966;48.112;9.282;2023-03-26T17:35:41;93534.50;;;8.81;58.99
9855;BME280;4966;48.112;9.282;2023-03-26T17:43:11;93527.16;;;8.46;59.85
9855;BME280;4966;48.112;9.282;2023-03-26T17:45:56;93518.41;;;8.52;59.73
9855;BME280;4966;48.112;9.282;2023-03-26T17:48:22;93516.38;;;8.49;59.94
9855;BME280;4966;48.112;9.282;2023-03-26T17:50:56;93517.25;;;8.38;60.61
9855;BME280;4966;48.112;9.282;2023-03-26T17:53:27;93531.09;;;8.48;60.34
9855;BME280;4966;48.112;9.282;2023-03-26T17:55:56;93534.13;;;8.47;61.52
9855;BME280;4966;48.112;9.282;2023-03-26T17:58:32;93541.03;;;8.60;62.47
9855;BME280;4966;48.112;9.282;2023-03-26T18:01:25;93532.75;;;8.53;63.65
9855;BME280;4966;48.112;9.282;2023-03-26T18:03:57;93538.66;;;8.59;63.84
9855;BME280;4966;48.112;9.282;2023-03-26T18:09:28;93548.00;;;8.77;63.92
9855;BME280;4966;48.112;9.282;2023-03-26T18:20:57;93543.75;;;8.60;64.05
9855;BME280;4966;48.112;9.282;2023-03-26T18:23:27;93545.06;;;8.86;63.77
9855;BME280;4966;48.112;9.282;2023-03-26T18:26:07;93550.94;;;8.52;64.82
9855;BME280;4966;48.112;9.282;2023-03-26T18:28:39;93543.34;;;8.78;64.12
9855;BME280;4966;48.112;9.282;2023-03-26T18:33:47;93546.78;;;8.59;63.73
9855;BME280;4966;48.112;9.282;2023-03-26T18:36:13;93547.78;;;8.50;63.62
9855;BME280;4966;48.112;9.282;2023-03-26T18:38:40;93549.34;;;8.36;63.59
9855;BME280;4966;48.112;9.282;2023-03-26T18:41:09;93550.31;;;8.43;63.10
9855;BME280;4966;48.112;9.282;2023-03-26T18:43:39;93549.16;;;7.97;64.68
9855;BME280;4966;48.112;9.282;2023-03-26T18:46:04;93547.75;;;8.35;63.43
9855;BME280;4966;48.112;9.282;2023-03-26T18:48:30;93544.91;;;8.43;62.77
9855;BME280;4966;48.112;9.282;2023-03-26T18:51:00;93554.59;;;8.28;63.32
9855;BME280;4966;48.112;9.282;2023-03-26T18:53:28;93558.09;;;8.29;63.24
9855;BME280;4966;48.112;9.282;2023-03-26T18:55:55;93556.94;;;8.30;62.90
9855;BME280;4966;48.112;9.282;2023-03-26T18:58:32;93560.72;;;8.41;62.04
9855;BME280;4966;48.112;9.282;2023-03-26T19:01:07;93572.78;;;7.68;62.94
9855;BME280;4966;48.112;9.282;2023-03-26T19:03:36;93572.13;;;7.71;63.14
9855;BME280;4966;48.112;9.282;2023-03-26T19:06:06;93582.31;;;7.62;63.64
9855;BME280;4966;48.112;9.282;2023-03-26T19:08:34;93589.16;;;7.87;63.98
9855;BME280;4966;48.112;9.282;2023-03-26T19:11:05;93579.69;;;7.09;68.52
9855;BME280;4966;48.112;9.282;2023-03-26T19:13:31;93585.53;;;6.58;73.97
9855;BME280;4966;48.112;9.282;2023-03-26T19:16:06;93585.31;;;6.51;75.42
9855;BME280;4966;48.112;9.282;2023-03-26T19:18:32;93585.06;;;5.95;79.78
9855;BME280;4966;48.112;9.282;2023-03-26T19:20:59;93574.28;;;6.32;80.52
9855;BME280;4966;48.112;9.282;2023-03-26T19:23:37;93569.66;;;6.57;78.82
9855;BME280;4966;48.112;9.282;2023-03-26T19:26:06;93563.72;;;6.51;79.38
9855;BME280;4966;48.112;9.282;2023-03-26T19:28:34;93569.09;;;6.27;78.97
9855;BME280;4966;48.112;9.282;2023-03-26T19:33:36;93564.59;;;6.18;80.25
9855;BME280;4966;48.112;9.282;2023-03-26T19:36:15;93567.19;;;6.03;80.95
9855;BME280;4966;48.112;9.282;2023-03-26T19:38:43;93561.91;;;6.18;80.52
9855;BME280;4966;48.112;9.282;2023-03-26T19:41:23;93562.38;;;6.21;81.11
9855;BME280;4966;48.112;9.282;2023-03-26T19:43:52;93554.50;;;6.15;80.92
9855;BME280;4966;48.112;9.282;2023-03-26T19:46:22;93551.09;;;6.18;80.59
9855;BME280;4966;48.112;9.282;2023-03-26T19:48:50;93564.94;;;6.17;81.34
9855;BME280;4966;48.112;9.282;2023-03-26T19:51:19;93565.47;;;5.98;81.18
9855;BME280;4966;48.112;9.282;2023-03-26T19:53:52;93577.19;;;6.02;80.16
9855;BME280;4966;48.112;9.282;2023-03-26T19:56:18;93565.97;;;6.37;80.41